This is the latest recevied weather packets stored in our database for station/object XE2AD-3. If no packets are shown the sender has not sent any weather packets the latest 10 day(s).
| Time | Temp. | Humidity | Pressure | Rain* | Wind** | Luminosity | Snow |
|---|---|---|---|---|---|---|---|
| 1788157695 | 13.33° C | 91% | 802 hPa | - | - | - | - |
| 1788156502 | 13.33° C | 89% | 801.8 hPa | - | - | - | - |
| 1788155314 | 13.33° C | 88% | 802 hPa | - | - | - | - |
| 1788152909 | 13.89° C | 88% | 802.1 hPa | - | - | - | - |
| 1788151712 | 13.89° C | 87% | 801.6 hPa | - | - | - | - |
| 1788150517 | 13.89° C | 86% | 801.3 hPa | - | - | - | - |
| 1788149330 | 13.33° C | 85% | 801.1 hPa | - | - | - | - |
| 1788148135 | 13.33° C | 84% | 801 hPa | - | - | - | - |
| 1788146932 | 13.33° C | 82% | 800.9 hPa | - | - | - | - |
| 1788145737 | 13.33° C | 82% | 800.6 hPa | - | - | - | - |
| 1788144541 | 13.89° C | 80% | 800.6 hPa | - | - | - | - |
| 1788142157 | 13.89° C | 78% | 799.6 hPa | - | - | - | - |
| 1788140962 | 13.89° C | 76% | 799.1 hPa | - | - | - | - |
| 1788138567 | 15.56° C | 67% | 799.2 hPa | - | - | - | - |
| 1788101175 | 23.89° C | 48% | 812.7 hPa | - | - | - | - |
| 1788099986 | 23.89° C | 49% | 812.7 hPa | - | - | - | - |
| 1788098783 | 23.89° C | 49% | 812.5 hPa | - | - | - | - |
| 1788097586 | 23.89° C | 49% | 812.5 hPa | - | - | - | - |
| 1788096391 | 23.33° C | 49% | 812.5 hPa | - | - | - | - |
| 1788095328 | 23.33° C | 49% | 812.4 hPa | - | - | - | - |
| 1788095196 | 23.33° C | 49% | 812.4 hPa | - | - | - | - |
| 1788094008 | 23.33° C | 49% | 812.1 hPa | - | - | - | - |
| 1788092805 | 23.89° C | 49% | 811.9 hPa | - | - | - | - |
| 1788091610 | 23.89° C | 48% | 811.8 hPa | - | - | - | - |
| 1788090419 | 23.89° C | 48% | 811.5 hPa | - | - | - | - |
* Rain since midnight (hover to see other rain measurements)
** Current wind speed in m/s (hover to see current wind gust speed)